Time;durP1;ratioP1;P1;durP2;ratioP2;P2;SDS_P1;SDS_P2;PMS_P1;PMS_P2;Temp;Humidity;BMP_temperature;BMP_pressure;BME280_temperature;BME280_humidity;BME280_pressure;Samples;Min_cycle;Max_cycle;Signal;HPM_P1;HPM_P2
2022/11/07 00:01:19;;;;;;;11.52;6.60;;;11.30;99.90;;;;;;4970511;28;20046;-67
2022/11/07 00:03:45;;;;;;;10.90;6.70;;;11.30;99.90;;;;;;4967626;28;20039;-67
2022/11/07 00:06:10;;;;;;;13.23;6.65;;;11.40;99.90;;;;;;4975853;28;20085;-67
2022/11/07 00:08:36;;;;;;;13.35;6.70;;;11.30;99.90;;;;;;4975740;28;20155;-67
2022/11/07 00:11:03;;;;;;;8.90;6.30;;;11.30;99.90;;;;;;4962248;28;20039;-67
2022/11/07 00:13:29;;;;;;;9.77;7.15;;;11.30;99.90;;;;;;4967790;28;20496;-67
2022/11/07 00:16:02;;;;;;;13.93;7.20;;;11.40;99.90;;;;;;4975875;28;20034;-67
2022/11/07 00:18:28;;;;;;;12.60;6.38;;;11.40;99.90;;;;;;4976132;28;20405;-67
2022/11/07 00:20:53;;;;;;;12.38;7.07;;;11.50;99.90;;;;;;4964389;28;20177;-67
2022/11/07 00:23:19;;;;;;;14.82;6.90;;;11.50;99.90;;;;;;4971750;28;20047;-67
2022/11/07 00:25:44;;;;;;;10.50;5.78;;;11.50;99.90;;;;;;4976070;28;20038;-67
2022/11/07 00:28:10;;;;;;;12.15;6.40;;;11.50;99.90;;;;;;4964192;28;20121;-67
2022/11/07 00:30:36;;;;;;;10.90;6.45;;;11.60;99.90;;;;;;4974794;28;20051;-67
2022/11/07 00:33:01;;;;;;;10.30;6.88;;;11.70;99.90;;;;;;4975464;28;20070;-67
2022/11/07 00:35:27;;;;;;;9.65;6.20;;;11.70;99.90;;;;;;4972149;28;20113;-67
2022/11/07 00:37:53;;;;;;;14.25;6.95;;;11.70;99.90;;;;;;4967008;28;20126;-67
2022/11/07 00:40:19;;;;;;;12.52;6.80;;;11.60;99.90;;;;;;4975458;28;20526;-67
2022/11/07 00:42:45;;;;;;;11.95;6.30;;;11.60;99.90;;;;;;4975451;28;20125;-67
2022/11/07 00:45:10;;;;;;;10.68;6.68;;;11.60;99.90;;;;;;4958096;28;20037;-67
2022/11/07 00:47:36;;;;;;;11.32;6.50;;;11.60;99.90;;;;;;4973756;28;20556;-67
2022/11/07 00:50:02;;;;;;;11.65;6.55;;;11.60;99.90;;;;;;4975222;28;20042;-67
2022/11/07 00:52:28;;;;;;;10.32;6.28;;;11.60;99.90;;;;;;4961835;28;20489;-67
2022/11/07 00:54:54;;;;;;;13.93;6.93;;;11.60;99.90;;;;;;4973078;28;20527;-67
2022/11/07 00:57:20;;;;;;;8.93;5.40;;;11.40;99.90;;;;;;4974976;28;20114;-67
2022/11/07 00:59:45;;;;;;;10.38;6.10;;;11.30;99.90;;;;;;4970330;28;20054;-67
2022/11/07 01:02:11;;;;;;;12.00;6.07;;;11.40;99.90;;;;;;4961537;28;20108;-67
2022/11/07 01:07:21;;;;;;;12.93;6.15;;;11.30;99.90;;;;;;4975247;28;20105;-67
2022/11/07 01:09:46;;;;;;;11.82;6.72;;;11.30;99.90;;;;;;4970667;28;20035;-67
2022/11/07 01:12:12;;;;;;;14.10;6.93;;;11.20;99.90;;;;;;4973958;28;20034;-67
2022/11/07 01:14:38;;;;;;;9.45;5.95;;;11.20;99.90;;;;;;4974690;28;20121;-67
2022/11/07 01:17:03;;;;;;;14.90;6.22;;;11.20;99.90;;;;;;4965893;28;20063;-67
2022/11/07 01:19:29;;;;;;;9.15;5.22;;;11.20;99.90;;;;;;4971510;28;20512;-67
2022/11/07 01:21:55;;;;;;;9.52;6.22;;;11.20;99.90;;;;;;4974430;28;20774;-67
2022/11/07 01:24:20;;;;;;;11.88;6.22;;;11.20;99.90;;;;;;4974759;28;20039;-67
2022/11/07 01:26:50;;;;;;;12.90;6.47;;;11.30;99.90;;;;;;4970735;28;20030;-67
2022/11/07 01:29:17;;;;;;;9.65;5.88;;;11.50;99.90;;;;;;4974459;28;20047;-67
2022/11/07 01:31:44;;;;;;;12.68;6.13;;;11.50;99.90;;;;;;4974217;28;20129;-67
2022/11/07 01:34:09;;;;;;;12.05;6.10;;;11.60;99.90;;;;;;4961086;28;20110;-67
2022/11/07 01:36:35;;;;;;;9.13;5.75;;;11.60;99.90;;;;;;4969842;28;20458;-67
2022/11/07 01:39:01;;;;;;;11.48;6.05;;;11.60;99.90;;;;;;4974204;28;20089;-67
2022/11/07 01:41:29;;;;;;;11.55;5.47;;;11.70;99.90;;;;;;4967071;28;20509;-67
2022/11/07 01:43:57;;;;;;;9.23;5.57;;;11.70;99.90;;;;;;4963936;28;20034;-67
2022/11/07 01:46:41;;;;;;;11.48;5.75;;;11.80;99.90;;;;;;4973909;28;20035;-67
2022/11/07 01:49:13;;;;;;;9.13;5.80;;;11.70;99.90;;;;;;4974159;28;20439;-67
2022/11/07 01:51:42;;;;;;;14.27;6.00;;;11.70;99.90;;;;;;4966562;28;20093;-67
2022/11/07 01:54:09;;;;;;;8.65;5.03;;;11.70;99.90;;;;;;4973925;28;20524;-67
2022/11/07 01:56:38;;;;;;;12.57;6.00;;;11.80;99.90;;;;;;4973534;28;20042;-67
2022/11/07 01:59:05;;;;;;;9.55;5.25;;;11.80;99.90;;;;;;4964578;28;20864;-67
2022/11/07 02:01:31;;;;;;;9.70;5.50;;;11.80;99.90;;;;;;4965221;28;20078;-67
2022/11/07 02:03:58;;;;;;;12.27;6.05;;;11.80;99.90;;;;;;4973949;28;20038;-67
2022/11/07 02:06:55;;;;;;;9.70;5.40;;;11.80;99.90;;;;;;4967144;28;20039;-67
2022/11/07 02:09:21;;;;;;;12.60;6.00;;;11.80;99.90;;;;;;4969621;28;20061;-67
2022/11/07 02:11:47;;;;;;;10.63;5.30;;;11.80;99.90;;;;;;4972532;28;20423;-67
2022/11/07 02:14:15;;;;;;;11.48;4.78;;;11.80;99.90;;;;;;4972778;28;20039;-67
2022/11/07 02:16:41;;;;;;;13.80;6.07;;;11.90;99.90;;;;;;4968741;28;20065;-67
2022/11/07 02:19:20;;;;;;;10.20;5.85;;;11.80;99.90;;;;;;4965646;28;20027;-66
2022/11/07 02:21:57;;;;;;;9.70;5.63;;;11.80;99.90;;;;;;4972925;28;20452;-67
2022/11/07 02:24:28;;;;;;;8.65;5.55;;;11.80;99.90;;;;;;4965249;28;20503;-67
2022/11/07 02:26:55;;;;;;;11.00;5.53;;;11.80;99.90;;;;;;4969519;28;20054;-67
2022/11/07 02:29:22;;;;;;;12.57;5.70;;;11.90;99.90;;;;;;4972841;28;20550;-67
2022/11/07 02:31:58;;;;;;;10.52;5.90;;;11.90;99.90;;;;;;4969946;28;20035;-67
2022/11/07 02:34:23;;;;;;;11.57;6.05;;;11.80;99.90;;;;;;4965966;28;20038;-67
2022/11/07 02:36:49;;;;;;;9.27;5.50;;;11.90;99.90;;;;;;4972066;28;20486;-67
2022/11/07 02:39:15;;;;;;;9.57;6.05;;;11.90;99.90;;;;;;4968187;28;20077;-67
2022/11/07 02:41:40;;;;;;;12.10;5.90;;;11.90;99.90;;;;;;4955088;28;20045;-67
2022/11/07 02:44:10;;;;;;;10.38;5.20;;;11.80;99.90;;;;;;4968145;28;20402;-67
2022/11/07 02:46:36;;;;;;;10.75;5.00;;;11.80;99.90;;;;;;4973408;28;20039;-67
2022/11/07 02:49:02;;;;;;;7.82;4.70;;;11.90;99.90;;;;;;4972573;28;20058;-67
2022/11/07 02:51:28;;;;;;;12.70;5.28;;;11.90;99.90;;;;;;4965920;28;20100;-67
2022/11/07 02:53:54;;;;;;;12.70;5.53;;;11.90;99.90;;;;;;4971467;28;20070;-67
2022/11/07 02:56:21;;;;;;;9.73;5.18;;;11.90;99.90;;;;;;4969397;28;20039;-67
2022/11/07 02:58:47;;;;;;;11.60;5.70;;;11.90;99.90;;;;;;4971903;28;20541;-67
2022/11/07 03:01:12;;;;;;;10.20;5.35;;;11.90;99.90;;;;;;4972514;28;20114;-67
2022/11/07 03:03:41;;;;;;;10.02;5.18;;;11.90;99.90;;;;;;4972816;28;20074;-67
2022/11/07 03:06:09;;;;;;;10.68;5.80;;;11.80;99.90;;;;;;4965002;28;20043;-67
2022/11/07 03:08:35;;;;;;;8.65;5.28;;;11.80;99.90;;;;;;4970484;28;20035;-66
2022/11/07 03:11:01;;;;;;;14.13;5.28;;;11.80;99.90;;;;;;4972378;28;20573;-67
2022/11/07 03:13:27;;;;;;;11.45;5.35;;;11.80;99.90;;;;;;4967228;28;20031;-66
2022/11/07 03:15:53;;;;;;;7.63;4.90;;;11.80;99.90;;;;;;4962647;28;20089;-66
2022/11/07 03:18:18;;;;;;;9.60;4.70;;;11.80;99.90;;;;;;4972219;28;20054;-67
2022/11/07 03:20:44;;;;;;;12.02;5.13;;;11.80;99.90;;;;;;4973070;28;20043;-67
2022/11/07 03:23:11;;;;;;;14.27;5.65;;;11.80;99.90;;;;;;4962663;28;20039;-66
2022/11/07 03:25:36;;;;;;;8.68;5.00;;;11.80;99.90;;;;;;4971218;28;20038;-67
2022/11/07 03:28:02;;;;;;;13.85;5.60;;;11.70;99.90;;;;;;4972417;28;20053;-66
2022/11/07 03:30:28;;;;;;;11.20;4.85;;;11.70;99.90;;;;;;4968656;28;20039;-67
2022/11/07 03:32:54;;;;;;;10.80;5.13;;;11.60;99.90;;;;;;4960332;28;20050;-67
2022/11/07 03:35:20;;;;;;;11.88;5.05;;;11.70;99.90;;;;;;4972609;28;20033;-66
2022/11/07 03:37:47;;;;;;;10.02;5.35;;;11.70;99.90;;;;;;4972783;28;20102;-66
2022/11/07 03:40:13;;;;;;;8.20;4.25;;;11.80;99.90;;;;;;4967898;28;20070;-66
2022/11/07 03:42:40;;;;;;;13.55;5.43;;;11.80;99.90;;;;;;4971745;28;20047;-66
2022/11/07 03:45:07;;;;;;;10.63;5.10;;;11.70;99.90;;;;;;4972187;28;20047;-67
2022/11/07 03:47:38;;;;;;;8.27;5.15;;;11.80;99.90;;;;;;4962353;28;20669;-66
2022/11/07 03:50:06;;;;;;;10.13;5.13;;;11.80;99.90;;;;;;4971273;28;20501;-66
2022/11/07 03:52:32;;;;;;;9.82;5.10;;;11.80;99.90;;;;;;4970368;28;20518;-66
2022/11/07 03:54:57;;;;;;;11.00;5.28;;;11.70;99.90;;;;;;4971217;28;20037;-66
2022/11/07 03:57:23;;;;;;;12.60;5.50;;;11.70;99.90;;;;;;4960592;28;20035;-66
2022/11/07 03:59:48;;;;;;;13.93;5.32;;;11.70;99.90;;;;;;4967344;28;20118;-67
2022/11/07 04:02:14;;;;;;;12.80;5.55;;;11.70;99.90;;;;;;4972026;28;20042;-66
2022/11/07 04:04:40;;;;;;;14.70;5.20;;;11.70;99.90;;;;;;4965559;28;20114;-66
2022/11/07 04:07:05;;;;;;;12.32;5.40;;;11.80;99.90;;;;;;4968910;28;20031;-66
2022/11/07 04:09:31;;;;;;;14.70;5.50;;;11.90;99.90;;;;;;4972060;28;20062;-67
2022/11/07 04:17:27;;;;;;;9.52;4.90;;;11.80;99.90;;;;;;4970377;28;20057;-67
2022/11/07 04:19:54;;;;;;;9.93;5.47;;;11.80;99.90;;;;;;4967240;28;20043;-67
2022/11/07 04:22:22;;;;;;;15.98;5.13;;;11.70;99.90;;;;;;4959989;28;20098;-67
2022/11/07 04:24:47;;;;;;;10.38;5.25;;;11.70;99.90;;;;;;4973816;28;20129;-67
2022/11/07 04:30:17;;;;;;;12.30;5.47;;;11.60;99.90;;;;;;4974396;28;20113;-67
2022/11/07 04:32:43;;;;;;;13.73;5.68;;;11.60;99.90;;;;;;4973755;28;20050;-67
2022/11/07 04:35:09;;;;;;;13.05;5.65;;;11.70;99.90;;;;;;4975317;28;20038;-67
2022/11/07 04:37:36;;;;;;;9.68;5.35;;;11.70;99.90;;;;;;4969755;28;20046;-68
2022/11/07 04:40:02;;;;;;;14.00;6.30;;;11.70;99.90;;;;;;4975210;28;20031;-68
2022/11/07 04:42:27;;;;;;;17.52;5.93;;;11.70;99.90;;;;;;4973478;28;20056;-68
2022/11/07 04:44:53;;;;;;;9.70;5.65;;;11.80;99.90;;;;;;4969047;28;20043;-68
2022/11/07 04:47:18;;;;;;;14.43;6.65;;;11.70;99.90;;;;;;4971593;28;20039;-68
2022/11/07 04:49:44;;;;;;;14.98;5.47;;;11.70;99.90;;;;;;4974451;28;20041;-68
2022/11/07 04:52:11;;;;;;;13.60;6.50;;;11.70;99.90;;;;;;4975401;28;20121;-68
2022/11/07 04:54:37;;;;;;;11.98;6.38;;;11.60;99.90;;;;;;4963893;28;20066;-67
2022/11/07 04:57:02;;;;;;;10.93;5.95;;;11.60;99.90;;;;;;4968556;28;20030;-66
2022/11/07 04:59:28;;;;;;;12.93;6.18;;;11.50;99.90;;;;;;4975011;28;20045;-67
2022/11/07 05:01:53;;;;;;;14.88;6.43;;;11.40;99.90;;;;;;4974659;28;20058;-68
2022/11/07 05:04:19;;;;;;;11.90;6.00;;;11.40;99.90;;;;;;4964316;28;20105;-67
2022/11/07 05:06:45;;;;;;;14.68;6.60;;;11.50;99.90;;;;;;4974442;28;20061;-66
2022/11/07 05:09:16;;;;;;;14.77;6.28;;;11.60;99.90;;;;;;4973350;28;20038;-66
2022/11/07 05:11:45;;;;;;;7.32;5.55;;;11.60;99.90;;;;;;4959678;28;20042;-66
2022/11/07 05:14:11;;;;;;;15.27;6.10;;;11.60;99.90;;;;;;4972303;28;20049;-67
2022/11/07 05:16:38;;;;;;;14.25;5.80;;;11.70;99.90;;;;;;4973647;28;20031;-67
2022/11/07 05:19:04;;;;;;;14.15;6.10;;;11.70;99.90;;;;;;4967921;28;20039;-67
2022/11/07 05:21:29;;;;;;;9.93;6.10;;;11.70;99.90;;;;;;4968109;28;20260;-66
2022/11/07 05:23:55;;;;;;;9.45;5.20;;;11.70;99.90;;;;;;4973339;28;20106;-66
2022/11/07 05:26:20;;;;;;;11.02;5.80;;;11.60;99.90;;;;;;4971701;28;20039;-68
2022/11/07 05:28:46;;;;;;;11.25;5.93;;;11.60;99.90;;;;;;4962906;28;20062;-68
2022/11/07 05:31:15;;;;;;;13.27;5.72;;;11.50;99.90;;;;;;4958180;28;20047;-70
2022/11/07 05:33:41;;;;;;;10.25;5.38;;;11.50;99.90;;;;;;4959851;28;20529;-66
2022/11/07 05:36:12;;;;;;;12.98;5.88;;;11.50;99.90;;;;;;4959021;28;20515;-68
2022/11/07 05:38:40;;;;;;;14.18;6.10;;;11.50;99.90;;;;;;4963744;28;20118;-66
2022/11/07 05:41:06;;;;;;;12.18;5.93;;;11.50;99.90;;;;;;4969440;28;20544;-67
2022/11/07 05:43:31;;;;;;;14.20;5.88;;;11.60;99.90;;;;;;4964400;28;20567;-66
2022/11/07 05:46:00;;;;;;;17.42;5.70;;;11.60;99.90;;;;;;4963159;28;20027;-68
2022/11/07 05:48:26;;;;;;;13.23;5.57;;;11.60;99.90;;;;;;4973743;28;20110;-67
2022/11/07 05:50:52;;;;;;;10.40;5.70;;;11.70;99.90;;;;;;4970012;28;20046;-67
2022/11/07 05:53:20;;;;;;;12.82;5.95;;;11.70;99.90;;;;;;4953613;28;20398;-66
2022/11/07 05:55:46;;;;;;;14.77;5.75;;;11.70;99.90;;;;;;4958797;28;20110;-67
2022/11/07 05:58:12;;;;;;;12.15;5.47;;;11.70;99.90;;;;;;4969292;28;20101;-66
2022/11/07 06:00:39;;;;;;;11.05;5.78;;;11.70;99.90;;;;;;4965033;28;20082;-67
2022/11/07 06:03:06;;;;;;;11.48;6.55;;;11.80;99.90;;;;;;4958646;28;20109;-66
2022/11/07 06:05:32;;;;;;;12.63;6.60;;;11.70;99.90;;;;;;4960715;28;20038;-67
2022/11/07 06:07:58;;;;;;;15.50;6.15;;;11.80;99.90;;;;;;4972287;28;20046;-67
2022/11/07 06:10:24;;;;;;;18.85;6.55;;;11.80;99.90;;;;;;4962336;28;20387;-68
2022/11/07 06:13:00;;;;;;;17.27;6.57;;;11.80;99.90;;;;;;4969976;28;20494;-70
2022/11/07 06:15:28;;;;;;;12.25;6.95;;;11.80;99.90;;;;;;4959359;28;20042;-67
2022/11/07 06:17:54;;;;;;;13.50;6.35;;;11.80;99.90;;;;;;4965148;28;20081;-68
2022/11/07 06:20:19;;;;;;;15.60;6.70;;;11.80;99.90;;;;;;4973074;28;20030;-66
2022/11/07 06:22:45;;;;;;;13.20;6.10;;;11.80;99.90;;;;;;4972984;28;20045;-67
2022/11/07 06:25:11;;;;;;;15.05;6.60;;;11.90;99.90;;;;;;4966957;28;20073;-67
2022/11/07 06:27:36;;;;;;;17.30;6.53;;;11.80;99.90;;;;;;4969816;28;20051;-70
2022/11/07 06:30:03;;;;;;;16.17;6.70;;;11.80;99.90;;;;;;4970738;28;20054;-70
2022/11/07 06:32:29;;;;;;;18.73;6.70;;;11.80;99.90;;;;;;4967455;28;20444;-67
2022/11/07 06:34:55;;;;;;;16.63;6.88;;;11.80;99.90;;;;;;4961181;28;20043;-68
2022/11/07 06:37:21;;;;;;;17.50;6.60;;;11.80;99.90;;;;;;4968459;28;20030;-70
2022/11/07 06:39:46;;;;;;;17.52;6.35;;;11.80;99.90;;;;;;4970065;28;20049;-69
2022/11/07 06:42:12;;;;;;;14.40;6.07;;;11.80;99.90;;;;;;4966917;28;20043;-68
2022/11/07 06:44:37;;;;;;;12.90;6.35;;;11.80;99.90;;;;;;4956929;28;20082;-69
2022/11/07 06:47:03;;;;;;;14.98;6.57;;;11.80;99.90;;;;;;4969240;28;20093;-68
2022/11/07 06:49:29;;;;;;;10.57;5.55;;;11.90;99.90;;;;;;4970583;28;20215;-70
2022/11/07 06:51:54;;;;;;;16.55;5.95;;;12.00;99.90;;;;;;4958879;28;20074;-68
2022/11/07 06:54:20;;;;;;;16.67;6.00;;;12.00;99.90;;;;;;4958824;28;20457;-67
2022/11/07 06:56:45;;;;;;;14.93;5.40;;;11.90;99.90;;;;;;4969351;28;20122;-69
2022/11/07 06:59:11;;;;;;;18.13;5.82;;;12.00;99.90;;;;;;4969098;28;20051;-68
2022/11/07 07:01:36;;;;;;;15.85;5.82;;;11.90;99.90;;;;;;4968669;28;20511;-68
2022/11/07 07:04:02;;;;;;;11.57;5.55;;;11.90;99.90;;;;;;4960821;28;20042;-67
2022/11/07 07:06:28;;;;;;;17.30;5.63;;;12.00;99.90;;;;;;4955855;28;20580;-67
2022/11/07 07:08:53;;;;;;;11.27;5.55;;;11.90;99.90;;;;;;4970075;28;20078;-68
2022/11/07 07:11:19;;;;;;;14.27;5.82;;;11.90;99.90;;;;;;4972018;28;20031;-67
2022/11/07 07:13:45;;;;;;;13.52;6.32;;;11.90;99.90;;;;;;4953224;29;20410;-68
2022/11/07 07:16:11;;;;;;;16.48;5.80;;;11.90;99.90;;;;;;4950803;28;20039;-68
2022/11/07 07:18:37;;;;;;;13.15;5.05;;;11.90;99.90;;;;;;4962351;28;20051;-68
2022/11/07 07:21:07;;;;;;;14.50;5.82;;;11.90;99.90;;;;;;4972205;28;20131;-68
2022/11/07 07:23:36;;;;;;;14.73;5.50;;;11.90;99.90;;;;;;4966803;28;20408;-67
2022/11/07 07:26:04;;;;;;;13.73;5.57;;;11.80;99.90;;;;;;4966355;28;20042;-67
2022/11/07 07:28:30;;;;;;;12.10;5.63;;;11.80;99.90;;;;;;4971658;28;20050;-67
2022/11/07 07:31:14;;;;;;;12.93;5.03;;;11.80;99.90;;;;;;4967605;28;20066;-67
2022/11/07 07:33:44;;;;;;;15.63;5.65;;;11.80;99.90;;;;;;4956753;28;20047;-69
2022/11/07 07:36:11;;;;;;;16.40;6.10;;;11.80;99.90;;;;;;4971875;28;20030;-67
2022/11/07 07:38:37;;;;;;;13.00;5.88;;;11.90;99.90;;;;;;4972327;28;20042;-67
2022/11/07 07:41:04;;;;;;;13.27;5.80;;;12.00;99.90;;;;;;4954607;28;20158;-67
2022/11/07 07:43:30;;;;;;;19.10;5.53;;;12.10;99.90;;;;;;4972195;28;20039;-67
2022/11/07 07:46:04;;;;;;;16.67;6.07;;;12.00;99.90;;;;;;4972389;28;20067;-68
2022/11/07 07:48:30;;;;;;;18.55;5.80;;;12.10;99.90;;;;;;4972493;28;20051;-67
2022/11/07 07:50:56;;;;;;;14.18;5.13;;;12.10;99.90;;;;;;4962255;28;20111;-69
2022/11/07 07:53:22;;;;;;;18.83;5.70;;;12.10;99.90;;;;;;4967179;28;20053;-67
2022/11/07 07:55:48;;;;;;;11.25;5.20;;;12.20;99.90;;;;;;4971946;28;20047;-67
2022/11/07 07:58:14;;;;;;;10.90;4.97;;;12.20;99.90;;;;;;4964514;28;20031;-67
2022/11/07 08:00:40;;;;;;;11.88;4.80;;;12.20;99.90;;;;;;4967899;28;20065;-67
2022/11/07 08:03:08;;;;;;;17.45;5.90;;;12.30;99.90;;;;;;4975667;28;20038;-67
2022/11/07 08:05:36;;;;;;;13.85;5.70;;;12.30;99.90;;;;;;4967646;28;20035;-67
2022/11/07 08:08:03;;;;;;;16.33;5.53;;;12.30;99.90;;;;;;4975365;28;20038;-67
2022/11/07 08:10:29;;;;;;;15.05;4.80;;;12.40;99.90;;;;;;4975356;28;20097;-68
2022/11/07 08:12:54;;;;;;;14.55;5.10;;;12.40;99.90;;;;;;4975159;28;20039;-70
2022/11/07 08:15:21;;;;;;;11.95;5.03;;;12.40;99.90;;;;;;4966160;28;20120;-68
2022/11/07 08:17:47;;;;;;;13.60;4.93;;;12.40;99.90;;;;;;4975805;28;20089;-67
2022/11/07 08:20:15;;;;;;;14.20;5.45;;;12.50;99.90;;;;;;4975905;28;20038;-67
2022/11/07 08:22:40;;;;;;;16.35;5.30;;;12.50;99.90;;;;;;4969833;28;20059;-68
2022/11/07 08:25:08;;;;;;;12.85;4.90;;;12.50;99.90;;;;;;4971688;28;20097;-68
2022/11/07 08:27:33;;;;;;;12.48;5.10;;;12.50;99.90;;;;;;4975665;28;20105;-68
2022/11/07 08:30:00;;;;;;;14.68;4.85;;;12.60;99.90;;;;;;4970559;28;20046;-67
2022/11/07 08:32:27;;;;;;;14.93;5.93;;;12.60;99.90;;;;;;4966878;28;20042;-67
2022/11/07 08:34:52;;;;;;;15.82;5.15;;;12.60;99.90;;;;;;4973767;28;20035;-67
2022/11/07 08:37:18;;;;;;;14.82;6.28;;;12.60;99.90;;;;;;4975703;28;20046;-68
2022/11/07 08:39:44;;;;;;;14.68;5.50;;;12.70;99.90;;;;;;4969204;28;20117;-68
2022/11/07 08:42:09;;;;;;;13.00;4.97;;;12.70;99.90;;;;;;4970086;28;20428;-67
2022/11/07 08:44:35;;;;;;;15.05;5.00;;;12.70;99.90;;;;;;4975437;28;20051;-67
2022/11/07 08:47:02;;;;;;;14.35;4.88;;;12.70;99.90;;;;;;4960339;28;20035;-67
2022/11/07 08:49:28;;;;;;;13.27;4.38;;;12.70;99.90;;;;;;4965874;28;20390;-68
2022/11/07 08:51:53;;;;;;;16.00;5.05;;;12.70;99.90;;;;;;4974938;28;20097;-67
2022/11/07 08:54:20;;;;;;;16.60;5.00;;;12.70;99.90;;;;;;4971456;28;20041;-67
2022/11/07 08:56:46;;;;;;;17.48;4.68;;;12.70;99.90;;;;;;4973897;28;20126;-67
2022/11/07 08:59:12;;;;;;;11.52;4.40;;;12.70;99.90;;;;;;4962594;28;20035;-67
2022/11/07 09:01:38;;;;;;;10.63;3.95;;;12.80;99.90;;;;;;4973211;28;20070;-67
2022/11/07 09:04:04;;;;;;;10.57;4.32;;;12.90;99.90;;;;;;4961639;28;20080;-68
2022/11/07 09:06:31;;;;;;;12.38;4.47;;;12.90;99.90;;;;;;4968646;28;20460;-67
2022/11/07 09:08:57;;;;;;;15.05;4.60;;;12.90;99.90;;;;;;4966252;28;20505;-67
2022/11/07 09:11:24;;;;;;;8.45;4.10;;;12.90;99.90;;;;;;4974230;28;20039;-67
2022/11/07 09:13:51;;;;;;;10.43;4.38;;;13.00;99.90;;;;;;4959827;28;20035;-67
2022/11/07 09:16:17;;;;;;;16.00;4.85;;;13.00;99.90;;;;;;4970206;28;20095;-68
2022/11/07 09:18:44;;;;;;;14.63;3.97;;;13.00;99.90;;;;;;4973183;28;20078;-69
2022/11/07 09:21:10;;;;;;;11.98;4.53;;;13.10;99.90;;;;;;4961204;28;20035;-67
2022/11/07 09:23:36;;;;;;;10.75;4.10;;;13.10;99.90;;;;;;4967627;28;20110;-67
2022/11/07 09:26:03;;;;;;;12.52;3.80;;;13.30;99.90;;;;;;4974759;28;20158;-68
2022/11/07 09:28:29;;;;;;;12.95;4.32;;;13.30;99.90;;;;;;4967566;28;20067;-67
2022/11/07 09:30:56;;;;;;;11.35;4.10;;;13.40;99.90;;;;;;4964887;28;20490;-68
2022/11/07 09:33:22;;;;;;;14.27;5.28;;;13.50;99.90;;;;;;4974110;28;20038;-67
2022/11/07 09:35:49;;;;;;;12.10;4.15;;;13.50;99.90;;;;;;4974727;28;20035;-68
2022/11/07 09:38:15;;;;;;;10.00;4.45;;;13.50;99.90;;;;;;4963233;28;20027;-67
2022/11/07 09:41:03;;;;;;;9.60;3.65;;;13.50;99.90;;;;;;4965932;28;20074;-68
2022/11/07 09:43:53;;;;;;;16.95;4.70;;;13.60;99.90;;;;;;4973819;28;20054;-68
2022/11/07 09:46:24;;;;;;;11.50;4.15;;;13.60;99.90;;;;;;4958778;28;20110;-68
2022/11/07 09:48:56;;;;;;;12.30;4.38;;;13.50;99.90;;;;;;4954911;28;20039;-68
2022/11/07 09:51:33;;;;;;;12.32;4.13;;;13.60;99.90;;;;;;4970690;28;20039;-69
2022/11/07 09:54:10;;;;;;;14.02;4.38;;;13.60;99.90;;;;;;4962058;28;20039;-68
2022/11/07 09:56:35;;;;;;;11.18;4.28;;;13.50;99.90;;;;;;4971141;28;20035;-68
2022/11/07 09:59:15;;;;;;;11.88;4.78;;;13.50;99.90;;;;;;4974278;28;20045;-68
2022/11/07 10:01:40;;;;;;;12.63;4.57;;;13.50;99.90;;;;;;4973692;28;20059;-68
2022/11/07 10:04:14;;;;;;;12.50;4.55;;;13.50;99.90;;;;;;4965035;28;20038;-68
2022/11/07 10:07:04;;;;;;;12.10;4.47;;;13.40;99.90;;;;;;4969382;28;20043;-69
2022/11/07 10:09:46;;;;;;;8.75;3.97;;;13.50;99.90;;;;;;4974225;28;20077;-68
2022/11/07 10:12:42;;;;;;;10.52;4.18;;;13.60;99.90;;;;;;4964177;28;20431;-68
2022/11/07 10:15:28;;;;;;;14.75;4.47;;;13.70;99.90;;;;;;4961410;28;20049;-69
2022/11/07 10:18:23;;;;;;;14.57;4.30;;;13.70;99.90;;;;;;4965440;28;20065;-68
2022/11/07 10:21:09;;;;;;;11.52;4.78;;;13.90;99.90;;;;;;4968758;28;20043;-68
2022/11/07 10:23:49;;;;;;;11.10;4.20;;;13.90;99.90;;;;;;4971460;28;20046;-68
2022/11/07 10:26:20;;;;;;;9.10;3.67;;;14.00;99.90;;;;;;4972841;28;20042;-69
2022/11/07 10:28:52;;;;;;;9.85;4.35;;;14.10;99.90;;;;;;4967719;28;20050;-69
2022/11/07 10:31:18;;;;;;;10.52;3.95;;;14.10;99.90;;;;;;4968158;28;20121;-68
2022/11/07 10:34:01;;;;;;;10.93;3.83;;;14.10;99.90;;;;;;4973567;28;20043;-68
2022/11/07 10:36:31;;;;;;;8.00;3.90;;;14.20;99.90;;;;;;4961997;28;20082;-68
2022/11/07 10:38:57;;;;;;;10.10;4.05;;;14.20;99.90;;;;;;4972930;28;20027;-68
2022/11/07 10:41:32;;;;;;;13.43;4.10;;;14.30;99.90;;;;;;4973032;28;20509;-68
2022/11/07 10:44:09;;;;;;;10.98;4.28;;;14.30;99.90;;;;;;4964995;28;20457;-68
2022/11/07 10:46:46;;;;;;;13.38;4.00;;;14.50;99.90;;;;;;4967981;28;20104;-68
2022/11/07 10:49:17;;;;;;;11.27;4.53;;;14.60;99.90;;;;;;4973371;28;20096;-68
2022/11/07 10:51:42;;;;;;;13.60;4.18;;;14.60;99.90;;;;;;4972827;28;20046;-68
2022/11/07 10:54:28;;;;;;;11.55;4.50;;;14.50;99.90;;;;;;4969183;28;20448;-67
2022/11/07 10:57:10;;;;;;;12.10;4.57;;;14.60;99.90;;;;;;4965769;28;20086;-69
2022/11/07 10:59:39;;;;;;;11.90;4.85;;;14.60;99.90;;;;;;4973414;28;20548;-68
2022/11/07 11:02:38;;;;;;;10.85;4.53;;;14.70;99.90;;;;;;4961406;28;20039;-67
2022/11/07 11:05:39;;;;;;;11.32;4.28;;;14.70;99.90;;;;;;4966073;28;20133;-67
2022/11/07 11:08:14;;;;;;;9.93;4.53;;;14.70;99.90;;;;;;4971135;28;20074;-67
2022/11/07 11:10:40;;;;;;;10.65;4.28;;;14.70;99.90;;;;;;4958966;28;20047;-71
2022/11/07 11:13:23;;;;;;;13.93;4.45;;;14.60;99.90;;;;;;4971746;28;20401;-69
2022/11/07 11:15:49;;;;;;;13.98;4.93;;;14.50;99.90;;;;;;4973123;28;20082;-66
2022/11/07 11:18:17;;;;;;;10.90;4.47;;;14.40;99.90;;;;;;4961905;28;20042;-68
2022/11/07 11:21:04;;;;;;;15.90;5.00;;;14.40;99.90;;;;;;4964392;28;20434;-68
2022/11/07 11:23:35;;;;;;;10.43;4.20;;;14.40;99.90;;;;;;4972078;28;20486;-67
2022/11/07 11:26:24;;;;;;;11.05;4.38;;;14.40;99.90;;;;;;4961780;28;20105;-67
2022/11/07 11:29:04;;;;;;;18.77;4.47;;;14.50;99.90;;;;;;4952006;28;20390;-67
2022/11/07 11:31:39;;;;;;;12.43;4.40;;;14.50;99.90;;;;;;4972330;28;20035;-67
2022/11/07 11:34:17;;;;;;;11.35;4.97;;;14.50;99.90;;;;;;4962603;28;20054;-67
2022/11/07 11:37:16;;;;;;;13.50;4.68;;;14.70;99.90;;;;;;4965549;28;22041;-68
2022/11/07 11:39:56;;;;;;;14.65;4.45;;;14.70;99.90;;;;;;4946436;28;20105;-67
2022/11/07 11:42:31;;;;;;;10.10;4.57;;;14.80;99.90;;;;;;4969879;28;20046;-67
2022/11/07 11:45:02;;;;;;;13.77;4.53;;;14.70;99.90;;;;;;4970943;28;20051;-67
2022/11/07 11:47:39;;;;;;;11.43;4.50;;;14.70;99.90;;;;;;4959895;28;20050;-67
2022/11/07 11:50:16;;;;;;;14.73;4.65;;;14.70;99.90;;;;;;4964466;28;20105;-67
2022/11/07 11:52:43;;;;;;;13.07;4.78;;;14.70;99.90;;;;;;4959478;28;20498;-67
2022/11/07 11:55:13;;;;;;;19.00;4.78;;;14.70;99.90;;;;;;4972337;28;20031;-67
2022/11/07 11:58:10;;;;;;;12.85;4.63;;;14.70;99.90;;;;;;4972703;28;20053;-67
2022/11/07 12:00:44;;;;;;;13.82;5.10;;;14.70;99.90;;;;;;4959111;28;20066;-69
2022/11/07 12:03:37;;;;;;;13.82;4.60;;;14.70;99.90;;;;;;4966865;28;20064;-68
2022/11/07 12:06:15;;;;;;;11.80;5.05;;;14.80;99.90;;;;;;4950396;28;20047;-66
2022/11/07 12:09:01;;;;;;;14.85;5.10;;;14.80;99.90;;;;;;4951198;28;20054;-67
2022/11/07 12:11:46;;;;;;;10.43;4.30;;;14.70;99.90;;;;;;4968735;28;20506;-67
2022/11/07 12:14:49;;;;;;;10.75;4.30;;;14.70;99.90;;;;;;4972358;28;20038;-67
2022/11/07 12:17:25;;;;;;;12.77;4.72;;;14.70;99.90;;;;;;4960762;28;20035;-67
2022/11/07 12:20:49;;;;;;;9.73;4.50;;;14.70;99.90;;;;;;4964230;28;20153;-67
2022/11/07 12:23:21;;;;;;;8.38;4.68;;;14.70;99.90;;;;;;4906732;29;20137;-67
2022/11/07 12:26:01;;;;;;;10.15;4.43;;;14.70;99.90;;;;;;4910552;29;20597;-67
2022/11/07 12:28:42;;;;;;;11.25;4.47;;;14.80;99.90;;;;;;4956278;28;20493;-67
2022/11/07 12:31:10;;;;;;;12.52;5.10;;;14.80;99.90;;;;;;4971893;28;20035;-66
2022/11/07 12:33:47;;;;;;;14.27;5.05;;;14.90;99.90;;;;;;4965213;28;20102;-67
2022/11/07 12:36:22;;;;;;;13.68;5.05;;;15.00;99.90;;;;;;4963432;28;20126;-67
2022/11/07 12:39:13;;;;;;;11.35;4.03;;;15.10;99.90;;;;;;4964293;28;20046;-66
2022/11/07 12:42:03;;;;;;;9.88;4.68;;;15.10;99.90;;;;;;4965695;28;20054;-67
2022/11/07 12:44:28;;;;;;;12.52;4.45;;;15.00;99.90;;;;;;4972969;28;20524;-69
2022/11/07 12:47:00;;;;;;;12.52;4.85;;;15.00;99.90;;;;;;4975140;28;20046;-67
2022/11/07 12:49:40;;;;;;;14.18;4.68;;;14.90;99.90;;;;;;4975428;28;20505;-68
2022/11/07 12:52:30;;;;;;;9.57;4.50;;;15.00;99.90;;;;;;4966700;28;20049;-67
2022/11/07 12:55:50;;;;;;;11.77;4.57;;;14.90;99.90;;;;;;4967299;28;20039;-67
2022/11/07 12:58:30;;;;;;;13.52;4.97;;;14.90;99.90;;;;;;4895618;29;20099;-67
2022/11/07 13:00:57;;;;;;;15.35;5.03;;;14.80;99.90;;;;;;4963556;28;20105;-67
2022/11/07 13:03:44;;;;;;;9.00;4.60;;;14.80;99.90;;;;;;4974719;28;20038;-67